sensor_id;sensor_type;location;lat;lon;timestamp;P1;durP1;ratioP1;P2;durP2;ratioP2
28455;SDS011;15682;56.742;38.866;2022-07-29T00:00:30;3.4;;;2.4;;
28455;SDS011;15682;56.742;38.866;2022-07-29T00:02:31;5.5;;;2.6;;
28455;SDS011;15682;56.742;38.866;2022-07-29T00:04:33;5.0;;;2.7;;
28455;SDS011;15682;56.742;38.866;2022-07-29T00:06:31;4.0;;;2.4;;
28455;SDS011;15682;56.742;38.866;2022-07-29T00:08:32;4.8;;;2.3;;
28455;SDS011;15682;56.742;38.866;2022-07-29T00:10:32;5.4;;;2.2;;
28455;SDS011;15682;56.742;38.866;2022-07-29T00:12:32;4.7;;;2.0;;
28455;SDS011;15682;56.742;38.866;2022-07-29T00:14:33;5.3;;;1.8;;
28455;SDS011;15682;56.742;38.866;2022-07-29T00:16:33;3.3;;;1.7;;
28455;SDS011;15682;56.742;38.866;2022-07-29T00:18:33;2.6;;;2.0;;
28455;SDS011;15682;56.742;38.866;2022-07-29T00:20:34;2.6;;;1.6;;
28455;SDS011;15682;56.742;38.866;2022-07-29T00:22:36;5.5;;;1.6;;
28455;SDS011;15682;56.742;38.866;2022-07-29T00:24:35;3.7;;;1.4;;
28455;SDS011;15682;56.742;38.866;2022-07-29T00:26:35;4.4;;;1.5;;
28455;SDS011;15682;56.742;38.866;2022-07-29T00:28:35;2.0;;;1.5;;
28455;SDS011;15682;56.742;38.866;2022-07-29T00:30:36;1.4;;;1.3;;
28455;SDS011;15682;56.742;38.866;2022-07-29T00:32:36;2.3;;;1.3;;
28455;SDS011;15682;56.742;38.866;2022-07-29T00:34:36;3.5;;;1.2;;
28455;SDS011;15682;56.742;38.866;2022-07-29T00:36:37;2.7;;;1.3;;
28455;SDS011;15682;56.742;38.866;2022-07-29T00:38:37;3.6;;;1.4;;
28455;SDS011;15682;56.742;38.866;2022-07-29T00:40:37;2.5;;;1.4;;
28455;SDS011;15682;56.742;38.866;2022-07-29T00:42:42;2.5;;;1.4;;
28455;SDS011;15682;56.742;38.866;2022-07-29T00:44:38;4.0;;;1.7;;
28455;SDS011;15682;56.742;38.866;2022-07-29T00:46:38;5.6;;;1.7;;
28455;SDS011;15682;56.742;38.866;2022-07-29T00:48:39;3.9;;;1.9;;
28455;SDS011;15682;56.742;38.866;2022-07-29T00:50:39;3.9;;;2.0;;
28455;SDS011;15682;56.742;38.866;2022-07-29T00:52:40;6.2;;;2.3;;
28455;SDS011;15682;56.742;38.866;2022-07-29T00:54:40;6.9;;;2.7;;
28455;SDS011;15682;56.742;38.866;2022-07-29T00:56:40;14.5;;;2.9;;
28455;SDS011;15682;56.742;38.866;2022-07-29T00:58:41;6.6;;;2.8;;
28455;SDS011;15682;56.742;38.866;2022-07-29T01:00:41;4.6;;;2.8;;
28455;SDS011;15682;56.742;38.866;2022-07-29T01:02:41;6.2;;;2.7;;
28455;SDS011;15682;56.742;38.866;2022-07-29T01:04:41;4.9;;;2.6;;
28455;SDS011;15682;56.742;38.866;2022-07-29T01:06:42;6.1;;;2.3;;
28455;SDS011;15682;56.742;38.866;2022-07-29T01:08:42;7.3;;;2.3;;
28455;SDS011;15682;56.742;38.866;2022-07-29T01:10:42;6.3;;;2.1;;
28455;SDS011;15682;56.742;38.866;2022-07-29T01:12:43;5.0;;;2.1;;
28455;SDS011;15682;56.742;38.866;2022-07-29T01:14:43;5.6;;;2.3;;
28455;SDS011;15682;56.742;38.866;2022-07-29T01:16:45;7.7;;;1.9;;
28455;SDS011;15682;56.742;38.866;2022-07-29T01:18:44;7.1;;;2.1;;
28455;SDS011;15682;56.742;38.866;2022-07-29T01:20:50;6.1;;;2.1;;
28455;SDS011;15682;56.742;38.866;2022-07-29T01:22:53;6.6;;;2.3;;
28455;SDS011;15682;56.742;38.866;2022-07-29T01:24:51;7.1;;;2.1;;
28455;SDS011;15682;56.742;38.866;2022-07-29T01:26:45;6.1;;;1.9;;
28455;SDS011;15682;56.742;38.866;2022-07-29T01:28:47;6.6;;;1.9;;
28455;SDS011;15682;56.742;38.866;2022-07-29T01:30:46;3.8;;;1.8;;
28455;SDS011;15682;56.742;38.866;2022-07-29T01:32:47;4.8;;;1.8;;
28455;SDS011;15682;56.742;38.866;2022-07-29T01:34:48;6.0;;;1.8;;
28455;SDS011;15682;56.742;38.866;2022-07-29T01:36:48;7.5;;;2.1;;
28455;SDS011;15682;56.742;38.866;2022-07-29T01:38:49;5.2;;;2.0;;
28455;SDS011;15682;56.742;38.866;2022-07-29T01:40:49;5.3;;;1.7;;
28455;SDS011;15682;56.742;38.866;2022-07-29T01:42:49;11.1;;;2.0;;
28455;SDS011;15682;56.742;38.866;2022-07-29T01:44:50;4.9;;;1.8;;
28455;SDS011;15682;56.742;38.866;2022-07-29T01:46:49;6.3;;;1.8;;
28455;SDS011;15682;56.742;38.866;2022-07-29T01:48:51;6.3;;;1.9;;
28455;SDS011;15682;56.742;38.866;2022-07-29T01:50:50;7.4;;;1.9;;
28455;SDS011;15682;56.742;38.866;2022-07-29T01:52:54;5.5;;;1.6;;
28455;SDS011;15682;56.742;38.866;2022-07-29T01:54:52;5.7;;;1.6;;
28455;SDS011;15682;56.742;38.866;2022-07-29T01:56:51;3.9;;;1.5;;
28455;SDS011;15682;56.742;38.866;2022-07-29T01:58:51;5.2;;;1.7;;
28455;SDS011;15682;56.742;38.866;2022-07-29T02:00:51;6.3;;;1.8;;
28455;SDS011;15682;56.742;38.866;2022-07-29T02:02:51;6.6;;;1.7;;
28455;SDS011;15682;56.742;38.866;2022-07-29T02:04:51;4.8;;;1.6;;
28455;SDS011;15682;56.742;38.866;2022-07-29T02:06:52;5.5;;;1.8;;
28455;SDS011;15682;56.742;38.866;2022-07-29T02:08:52;4.8;;;1.8;;
28455;SDS011;15682;56.742;38.866;2022-07-29T02:10:52;5.7;;;1.7;;
28455;SDS011;15682;56.742;38.866;2022-07-29T02:12:53;7.6;;;1.5;;
28455;SDS011;15682;56.742;38.866;2022-07-29T02:14:53;5.8;;;1.6;;
28455;SDS011;15682;56.742;38.866;2022-07-29T02:16:54;6.5;;;1.8;;
28455;SDS011;15682;56.742;38.866;2022-07-29T02:18:54;4.0;;;1.5;;
28455;SDS011;15682;56.742;38.866;2022-07-29T02:20:54;7.2;;;1.6;;
28455;SDS011;15682;56.742;38.866;2022-07-29T02:22:54;4.4;;;1.6;;
28455;SDS011;15682;56.742;38.866;2022-07-29T02:24:55;7.0;;;1.5;;
28455;SDS011;15682;56.742;38.866;2022-07-29T02:26:55;5.0;;;1.9;;
28455;SDS011;15682;56.742;38.866;2022-07-29T02:28:56;5.0;;;1.6;;
28455;SDS011;15682;56.742;38.866;2022-07-29T02:30:56;5.7;;;1.5;;
28455;SDS011;15682;56.742;38.866;2022-07-29T02:32:56;3.3;;;1.5;;
28455;SDS011;15682;56.742;38.866;2022-07-29T02:34:56;4.6;;;1.7;;
28455;SDS011;15682;56.742;38.866;2022-07-29T02:36:56;6.3;;;1.6;;
28455;SDS011;15682;56.742;38.866;2022-07-29T02:38:57;8.9;;;1.6;;
28455;SDS011;15682;56.742;38.866;2022-07-29T02:40:57;4.1;;;1.4;;
28455;SDS011;15682;56.742;38.866;2022-07-29T02:42:57;6.0;;;1.6;;
28455;SDS011;15682;56.742;38.866;2022-07-29T02:44:58;6.3;;;1.7;;
28455;SDS011;15682;56.742;38.866;2022-07-29T02:46:59;7.2;;;1.6;;
28455;SDS011;15682;56.742;38.866;2022-07-29T02:49:00;11.9;;;2.0;;
28455;SDS011;15682;56.742;38.866;2022-07-29T02:51:01;5.0;;;1.5;;
28455;SDS011;15682;56.742;38.866;2022-07-29T02:53:00;4.0;;;1.6;;
28455;SDS011;15682;56.742;38.866;2022-07-29T02:55:00;8.4;;;1.9;;
28455;SDS011;15682;56.742;38.866;2022-07-29T02:57:00;7.4;;;1.7;;
28455;SDS011;15682;56.742;38.866;2022-07-29T02:59:02;3.4;;;1.3;;
28455;SDS011;15682;56.742;38.866;2022-07-29T03:01:01;7.2;;;1.7;;
28455;SDS011;15682;56.742;38.866;2022-07-29T03:03:01;9.4;;;1.5;;
28455;SDS011;15682;56.742;38.866;2022-07-29T03:05:01;4.5;;;1.4;;
28455;SDS011;15682;56.742;38.866;2022-07-29T03:07:01;4.9;;;1.4;;
28455;SDS011;15682;56.742;38.866;2022-07-29T03:09:02;7.5;;;1.6;;
28455;SDS011;15682;56.742;38.866;2022-07-29T03:11:02;7.4;;;1.6;;
28455;SDS011;15682;56.742;38.866;2022-07-29T03:13:03;7.8;;;1.6;;
28455;SDS011;15682;56.742;38.866;2022-07-29T03:15:03;7.7;;;1.5;;
28455;SDS011;15682;56.742;38.866;2022-07-29T03:17:03;7.7;;;2.3;;
28455;SDS011;15682;56.742;38.866;2022-07-29T03:19:03;8.7;;;2.2;;
28455;SDS011;15682;56.742;38.866;2022-07-29T03:21:04;7.5;;;1.5;;
28455;SDS011;15682;56.742;38.866;2022-07-29T03:23:04;9.9;;;2.5;;
28455;SDS011;15682;56.742;38.866;2022-07-29T03:25:07;15.2;;;2.8;;
28455;SDS011;15682;56.742;38.866;2022-07-29T03:27:05;11.0;;;2.0;;
28455;SDS011;15682;56.742;38.866;2022-07-29T03:29:05;11.8;;;2.8;;
28455;SDS011;15682;56.742;38.866;2022-07-29T03:31:05;7.6;;;1.8;;
28455;SDS011;15682;56.742;38.866;2022-07-29T03:33:06;6.1;;;1.8;;
28455;SDS011;15682;56.742;38.866;2022-07-29T03:35:07;6.0;;;1.6;;
28455;SDS011;15682;56.742;38.866;2022-07-29T03:37:06;6.7;;;1.7;;
28455;SDS011;15682;56.742;38.866;2022-07-29T03:39:07;7.5;;;1.7;;
28455;SDS011;15682;56.742;38.866;2022-07-29T03:41:09;6.0;;;1.6;;
28455;SDS011;15682;56.742;38.866;2022-07-29T03:43:07;9.1;;;2.1;;
28455;SDS011;15682;56.742;38.866;2022-07-29T03:45:09;6.7;;;2.0;;
28455;SDS011;15682;56.742;38.866;2022-07-29T03:47:08;6.2;;;1.7;;
28455;SDS011;15682;56.742;38.866;2022-07-29T03:49:08;6.6;;;1.8;;
28455;SDS011;15682;56.742;38.866;2022-07-29T03:51:09;5.5;;;1.5;;
28455;SDS011;15682;56.742;38.866;2022-07-29T03:53:09;5.9;;;1.6;;
28455;SDS011;15682;56.742;38.866;2022-07-29T03:55:09;6.0;;;1.9;;
28455;SDS011;15682;56.742;38.866;2022-07-29T03:57:10;6.6;;;1.9;;
28455;SDS011;15682;56.742;38.866;2022-07-29T03:59:10;9.1;;;1.6;;
28455;SDS011;15682;56.742;38.866;2022-07-29T04:01:10;8.7;;;1.7;;
28455;SDS011;15682;56.742;38.866;2022-07-29T04:03:11;6.8;;;1.6;;
28455;SDS011;15682;56.742;38.866;2022-07-29T04:05:12;18.5;;;2.6;;
28455;SDS011;15682;56.742;38.866;2022-07-29T04:07:12;6.8;;;1.6;;
28455;SDS011;15682;56.742;38.866;2022-07-29T04:09:12;7.0;;;1.5;;
28455;SDS011;15682;56.742;38.866;2022-07-29T04:11:12;6.4;;;1.7;;
28455;SDS011;15682;56.742;38.866;2022-07-29T04:13:13;7.6;;;1.5;;
28455;SDS011;15682;56.742;38.866;2022-07-29T04:15:13;7.4;;;1.6;;
28455;SDS011;15682;56.742;38.866;2022-07-29T04:17:13;6.2;;;1.7;;
28455;SDS011;15682;56.742;38.866;2022-07-29T04:19:14;9.4;;;1.7;;
28455;SDS011;15682;56.742;38.866;2022-07-29T04:21:14;6.9;;;1.7;;
28455;SDS011;15682;56.742;38.866;2022-07-29T04:23:14;7.0;;;1.8;;
28455;SDS011;15682;56.742;38.866;2022-07-29T04:25:15;4.1;;;1.5;;
28455;SDS011;15682;56.742;38.866;2022-07-29T04:27:15;7.9;;;1.6;;
28455;SDS011;15682;56.742;38.866;2022-07-29T04:29:15;8.2;;;1.5;;
28455;SDS011;15682;56.742;38.866;2022-07-29T04:31:16;7.2;;;1.5;;
28455;SDS011;15682;56.742;38.866;2022-07-29T04:33:16;6.7;;;1.4;;
28455;SDS011;15682;56.742;38.866;2022-07-29T04:35:16;6.0;;;1.5;;
28455;SDS011;15682;56.742;38.866;2022-07-29T04:37:17;5.0;;;1.4;;
28455;SDS011;15682;56.742;38.866;2022-07-29T04:39:17;8.4;;;1.6;;
28455;SDS011;15682;56.742;38.866;2022-07-29T04:41:18;7.3;;;1.8;;
28455;SDS011;15682;56.742;38.866;2022-07-29T04:43:18;5.6;;;1.4;;
28455;SDS011;15682;56.742;38.866;2022-07-29T04:45:19;8.9;;;1.6;;
28455;SDS011;15682;56.742;38.866;2022-07-29T04:47:19;6.3;;;1.6;;
28455;SDS011;15682;56.742;38.866;2022-07-29T04:49:19;8.7;;;2.1;;
28455;SDS011;15682;56.742;38.866;2022-07-29T04:51:20;8.4;;;1.7;;
28455;SDS011;15682;56.742;38.866;2022-07-29T04:53:20;5.8;;;1.5;;
28455;SDS011;15682;56.742;38.866;2022-07-29T04:55:21;3.5;;;1.2;;
28455;SDS011;15682;56.742;38.866;2022-07-29T04:57:21;4.9;;;1.4;;
28455;SDS011;15682;56.742;38.866;2022-07-29T04:59:22;8.3;;;1.5;;
28455;SDS011;15682;56.742;38.866;2022-07-29T05:01:22;5.0;;;1.4;;
28455;SDS011;15682;56.742;38.866;2022-07-29T05:03:23;7.7;;;1.6;;
28455;SDS011;15682;56.742;38.866;2022-07-29T05:05:23;7.0;;;1.8;;
28455;SDS011;15682;56.742;38.866;2022-07-29T05:07:24;9.9;;;1.7;;
28455;SDS011;15682;56.742;38.866;2022-07-29T05:09:25;9.0;;;1.7;;
28455;SDS011;15682;56.742;38.866;2022-07-29T05:11:25;9.1;;;1.6;;
28455;SDS011;15682;56.742;38.866;2022-07-29T05:13:26;6.9;;;1.4;;
28455;SDS011;15682;56.742;38.866;2022-07-29T05:15:26;4.2;;;1.7;;
28455;SDS011;15682;56.742;38.866;2022-07-29T05:17:27;4.7;;;1.5;;
28455;SDS011;15682;56.742;38.866;2022-07-29T05:19:27;9.7;;;1.6;;
28455;SDS011;15682;56.742;38.866;2022-07-29T05:21:28;4.8;;;1.4;;
28455;SDS011;15682;56.742;38.866;2022-07-29T05:23:28;4.7;;;1.7;;
28455;SDS011;15682;56.742;38.866;2022-07-29T05:25:29;10.9;;;1.5;;
28455;SDS011;15682;56.742;38.866;2022-07-29T05:27:29;5.7;;;1.4;;
28455;SDS011;15682;56.742;38.866;2022-07-29T05:29:30;5.7;;;1.6;;
28455;SDS011;15682;56.742;38.866;2022-07-29T05:31:30;6.3;;;1.3;;
28455;SDS011;15682;56.742;38.866;2022-07-29T05:33:31;6.0;;;1.6;;
28455;SDS011;15682;56.742;38.866;2022-07-29T05:35:31;6.9;;;1.5;;
28455;SDS011;15682;56.742;38.866;2022-07-29T05:37:32;4.9;;;1.6;;
28455;SDS011;15682;56.742;38.866;2022-07-29T05:39:32;5.5;;;1.4;;
28455;SDS011;15682;56.742;38.866;2022-07-29T05:41:33;6.3;;;1.2;;
28455;SDS011;15682;56.742;38.866;2022-07-29T05:43:34;6.1;;;1.4;;
28455;SDS011;15682;56.742;38.866;2022-07-29T05:45:34;5.5;;;1.5;;
28455;SDS011;15682;56.742;38.866;2022-07-29T05:47:35;4.4;;;1.4;;
28455;SDS011;15682;56.742;38.866;2022-07-29T05:49:35;10.0;;;1.7;;
28455;SDS011;15682;56.742;38.866;2022-07-29T05:51:36;6.3;;;1.5;;
28455;SDS011;15682;56.742;38.866;2022-07-29T05:53:37;7.9;;;1.5;;
28455;SDS011;15682;56.742;38.866;2022-07-29T05:55:37;6.7;;;1.4;;
28455;SDS011;15682;56.742;38.866;2022-07-29T05:57:38;5.0;;;1.3;;
28455;SDS011;15682;56.742;38.866;2022-07-29T05:59:38;5.8;;;1.6;;
28455;SDS011;15682;56.742;38.866;2022-07-29T06:01:39;4.8;;;1.4;;
28455;SDS011;15682;56.742;38.866;2022-07-29T06:03:39;10.3;;;1.5;;
28455;SDS011;15682;56.742;38.866;2022-07-29T06:05:40;8.1;;;1.5;;
28455;SDS011;15682;56.742;38.866;2022-07-29T06:07:41;8.3;;;1.5;;
28455;SDS011;15682;56.742;38.866;2022-07-29T06:09:41;5.6;;;1.5;;
28455;SDS011;15682;56.742;38.866;2022-07-29T06:11:42;4.9;;;1.7;;
28455;SDS011;15682;56.742;38.866;2022-07-29T06:13:42;8.2;;;1.6;;
28455;SDS011;15682;56.742;38.866;2022-07-29T06:15:43;3.8;;;1.3;;
28455;SDS011;15682;56.742;38.866;2022-07-29T06:17:44;5.3;;;1.5;;
28455;SDS011;15682;56.742;38.866;2022-07-29T06:19:44;7.8;;;1.6;;
28455;SDS011;15682;56.742;38.866;2022-07-29T06:21:46;8.1;;;1.6;;
28455;SDS011;15682;56.742;38.866;2022-07-29T06:23:46;4.8;;;1.7;;
28455;SDS011;15682;56.742;38.866;2022-07-29T06:25:46;3.7;;;1.5;;
28455;SDS011;15682;56.742;38.866;2022-07-29T06:27:47;6.5;;;1.6;;
28455;SDS011;15682;56.742;38.866;2022-07-29T06:29:47;4.1;;;1.4;;
28455;SDS011;15682;56.742;38.866;2022-07-29T06:31:48;4.6;;;1.5;;
28455;SDS011;15682;56.742;38.866;2022-07-29T06:33:49;5.1;;;1.5;;
28455;SDS011;15682;56.742;38.866;2022-07-29T06:35:49;9.1;;;1.7;;
28455;SDS011;15682;56.742;38.866;2022-07-29T06:37:50;7.2;;;1.5;;
28455;SDS011;15682;56.742;38.866;2022-07-29T06:39:51;5.8;;;1.5;;
28455;SDS011;15682;56.742;38.866;2022-07-29T06:41:51;5.7;;;1.6;;
28455;SDS011;15682;56.742;38.866;2022-07-29T06:43:52;5.9;;;1.3;;
28455;SDS011;15682;56.742;38.866;2022-07-29T06:45:53;4.5;;;1.4;;
28455;SDS011;15682;56.742;38.866;2022-07-29T06:47:53;4.9;;;1.4;;
28455;SDS011;15682;56.742;38.866;2022-07-29T06:49:54;4.7;;;1.4;;
28455;SDS011;15682;56.742;38.866;2022-07-29T06:51:55;6.6;;;1.5;;
28455;SDS011;15682;56.742;38.866;2022-07-29T06:53:55;4.7;;;1.5;;
28455;SDS011;15682;56.742;38.866;2022-07-29T06:55:56;5.5;;;1.5;;
28455;SDS011;15682;56.742;38.866;2022-07-29T06:57:56;6.9;;;1.4;;
28455;SDS011;15682;56.742;38.866;2022-07-29T06:59:57;8.5;;;1.6;;
28455;SDS011;15682;56.742;38.866;2022-07-29T07:01:58;7.9;;;1.5;;
28455;SDS011;15682;56.742;38.866;2022-07-29T07:03:58;11.6;;;2.2;;
28455;SDS011;15682;56.742;38.866;2022-07-29T07:05:59;8.8;;;1.8;;
28455;SDS011;15682;56.742;38.866;2022-07-29T07:08:00;5.8;;;1.5;;
28455;SDS011;15682;56.742;38.866;2022-07-29T07:10:00;3.5;;;1.3;;
28455;SDS011;15682;56.742;38.866;2022-07-29T07:12:01;5.4;;;1.3;;
28455;SDS011;15682;56.742;38.866;2022-07-29T07:14:02;4.5;;;1.2;;
28455;SDS011;15682;56.742;38.866;2022-07-29T07:16:03;11.6;;;2.6;;
28455;SDS011;15682;56.742;38.866;2022-07-29T07:18:03;11.0;;;3.0;;
28455;SDS011;15682;56.742;38.866;2022-07-29T07:20:04;9.2;;;1.5;;
28455;SDS011;15682;56.742;38.866;2022-07-29T07:22:04;7.2;;;1.8;;
28455;SDS011;15682;56.742;38.866;2022-07-29T07:24:05;8.2;;;1.5;;
28455;SDS011;15682;56.742;38.866;2022-07-29T07:26:06;11.2;;;1.8;;
28455;SDS011;15682;56.742;38.866;2022-07-29T07:28:06;5.0;;;1.4;;
28455;SDS011;15682;56.742;38.866;2022-07-29T07:30:07;8.0;;;1.4;;
28455;SDS011;15682;56.742;38.866;2022-07-29T07:32:08;4.7;;;1.5;;
28455;SDS011;15682;56.742;38.866;2022-07-29T07:34:08;7.0;;;1.7;;
28455;SDS011;15682;56.742;38.866;2022-07-29T07:36:09;6.2;;;1.3;;
28455;SDS011;15682;56.742;38.866;2022-07-29T07:38:10;11.3;;;2.2;;
28455;SDS011;15682;56.742;38.866;2022-07-29T07:40:11;8.9;;;1.7;;
28455;SDS011;15682;56.742;38.866;2022-07-29T07:42:12;9.0;;;1.6;;
28455;SDS011;15682;56.742;38.866;2022-07-29T07:44:11;3.1;;;1.3;;
28455;SDS011;15682;56.742;38.866;2022-07-29T07:46:12;8.7;;;1.6;;
28455;SDS011;15682;56.742;38.866;2022-07-29T07:48:13;4.5;;;1.2;;
28455;SDS011;15682;56.742;38.866;2022-07-29T07:50:13;5.0;;;1.3;;
28455;SDS011;15682;56.742;38.866;2022-07-29T07:52:14;5.0;;;1.3;;
28455;SDS011;15682;56.742;38.866;2022-07-29T07:54:14;5.0;;;1.2;;
28455;SDS011;15682;56.742;38.866;2022-07-29T07:56:15;9.2;;;1.4;;
28455;SDS011;15682;56.742;38.866;2022-07-29T07:58:15;9.0;;;1.5;;
28455;SDS011;15682;56.742;38.866;2022-07-29T08:00:16;5.0;;;1.5;;
28455;SDS011;15682;56.742;38.866;2022-07-29T08:02:17;3.3;;;1.2;;
28455;SDS011;15682;56.742;38.866;2022-07-29T08:04:17;4.7;;;1.2;;
28455;SDS011;15682;56.742;38.866;2022-07-29T08:06:18;6.5;;;1.8;;
28455;SDS011;15682;56.742;38.866;2022-07-29T08:08:18;5.6;;;1.3;;
28455;SDS011;15682;56.742;38.866;2022-07-29T08:10:19;4.0;;;1.6;;
28455;SDS011;15682;56.742;38.866;2022-07-29T08:12:19;5.3;;;1.6;;
28455;SDS011;15682;56.742;38.866;2022-07-29T08:14:20;11.0;;;1.7;;
28455;SDS011;15682;56.742;38.866;2022-07-29T08:16:21;4.2;;;1.5;;
28455;SDS011;15682;56.742;38.866;2022-07-29T08:18:21;7.6;;;1.9;;
28455;SDS011;15682;56.742;38.866;2022-07-29T08:20:22;10.2;;;1.9;;
28455;SDS011;15682;56.742;38.866;2022-07-29T08:22:22;7.5;;;1.7;;
28455;SDS011;15682;56.742;38.866;2022-07-29T08:24:23;5.1;;;1.4;;
28455;SDS011;15682;56.742;38.866;2022-07-29T08:26:23;4.5;;;1.3;;
28455;SDS011;15682;56.742;38.866;2022-07-29T08:28:24;5.0;;;1.3;;
28455;SDS011;15682;56.742;38.866;2022-07-29T08:30:24;6.8;;;1.4;;
28455;SDS011;15682;56.742;38.866;2022-07-29T08:32:25;7.1;;;1.4;;
28455;SDS011;15682;56.742;38.866;2022-07-29T08:34:26;10.3;;;1.9;;
28455;SDS011;15682;56.742;38.866;2022-07-29T08:36:26;7.8;;;1.3;;
28455;SDS011;15682;56.742;38.866;2022-07-29T08:38:27;5.1;;;1.1;;
28455;SDS011;15682;56.742;38.866;2022-07-29T08:40:27;4.5;;;1.4;;
28455;SDS011;15682;56.742;38.866;2022-07-29T08:42:28;6.2;;;1.1;;
28455;SDS011;15682;56.742;38.866;2022-07-29T08:44:28;3.9;;;1.1;;
28455;SDS011;15682;56.742;38.866;2022-07-29T08:46:29;7.1;;;1.5;;
28455;SDS011;15682;56.742;38.866;2022-07-29T08:48:29;3.1;;;1.2;;
28455;SDS011;15682;56.742;38.866;2022-07-29T08:50:30;4.4;;;1.4;;
28455;SDS011;15682;56.742;38.866;2022-07-29T08:52:30;4.7;;;1.1;;
28455;SDS011;15682;56.742;38.866;2022-07-29T08:54:31;5.0;;;1.2;;
28455;SDS011;15682;56.742;38.866;2022-07-29T08:56:32;10.8;;;1.5;;
28455;SDS011;15682;56.742;38.866;2022-07-29T08:58:33;2.6;;;1.0;;
28455;SDS011;15682;56.742;38.866;2022-07-29T09:00:33;4.9;;;1.1;;
28455;SDS011;15682;56.742;38.866;2022-07-29T09:02:37;4.1;;;1.1;;
28455;SDS011;15682;56.742;38.866;2022-07-29T09:04:34;6.3;;;1.4;;
28455;SDS011;15682;56.742;38.866;2022-07-29T09:06:36;5.4;;;1.5;;
28455;SDS011;15682;56.742;38.866;2022-07-29T09:08:35;5.3;;;1.2;;
28455;SDS011;15682;56.742;38.866;2022-07-29T09:10:36;8.0;;;1.3;;
28455;SDS011;15682;56.742;38.866;2022-07-29T09:12:36;2.8;;;1.3;;
28455;SDS011;15682;56.742;38.866;2022-07-29T09:14:37;4.6;;;1.5;;
28455;SDS011;15682;56.742;38.866;2022-07-29T09:18:38;7.3;;;1.9;;
28455;SDS011;15682;56.742;38.866;2022-07-29T09:20:38;6.8;;;1.8;;
28455;SDS011;15682;56.742;38.866;2022-07-29T09:22:39;4.1;;;1.2;;
28455;SDS011;15682;56.742;38.866;2022-07-29T09:24:40;4.5;;;1.4;;
28455;SDS011;15682;56.742;38.866;2022-07-29T09:26:41;7.6;;;1.7;;
28455;SDS011;15682;56.742;38.866;2022-07-29T09:28:41;3.9;;;1.3;;
28455;SDS011;15682;56.742;38.866;2022-07-29T09:30:49;6.0;;;1.4;;
28455;SDS011;15682;56.742;38.866;2022-07-29T09:34:42;3.6;;;1.2;;
28455;SDS011;15682;56.742;38.866;2022-07-29T09:36:43;6.1;;;1.1;;
28455;SDS011;15682;56.742;38.866;2022-07-29T09:38:43;7.1;;;1.1;;
28455;SDS011;15682;56.742;38.866;2022-07-29T09:40:44;5.5;;;1.2;;
28455;SDS011;15682;56.742;38.866;2022-07-29T09:42:45;1.9;;;0.9;;
28455;SDS011;15682;56.742;38.866;2022-07-29T09:44:46;5.2;;;1.2;;
28455;SDS011;15682;56.742;38.866;2022-07-29T09:48:48;8.9;;;1.3;;
28455;SDS011;15682;56.742;38.866;2022-07-29T09:50:47;2.6;;;0.9;;
28455;SDS011;15682;56.742;38.866;2022-07-29T09:52:48;4.9;;;1.1;;
28455;SDS011;15682;56.742;38.866;2022-07-29T09:54:48;7.9;;;1.4;;
28455;SDS011;15682;56.742;38.866;2022-07-29T09:56:48;9.2;;;1.1;;
28455;SDS011;15682;56.742;38.866;2022-07-29T09:58:51;4.2;;;1.2;;
28455;SDS011;15682;56.742;38.866;2022-07-29T10:00:50;5.2;;;1.4;;
28455;SDS011;15682;56.742;38.866;2022-07-29T10:02:50;4.2;;;1.1;;
28455;SDS011;15682;56.742;38.866;2022-07-29T10:04:50;4.2;;;1.0;;
28455;SDS011;15682;56.742;38.866;2022-07-29T10:06:59;7.2;;;1.1;;
28455;SDS011;15682;56.742;38.866;2022-07-29T10:08:51;6.9;;;1.2;;
28455;SDS011;15682;56.742;38.866;2022-07-29T10:11:05;4.7;;;0.9;;
28455;SDS011;15682;56.742;38.866;2022-07-29T10:12:54;3.1;;;0.8;;
28455;SDS011;15682;56.742;38.866;2022-07-29T10:14:53;3.8;;;0.9;;
28455;SDS011;15682;56.742;38.866;2022-07-29T10:16:53;3.6;;;0.8;;
28455;SDS011;15682;56.742;38.866;2022-07-29T10:18:54;10.0;;;2.2;;
28455;SDS011;15682;56.742;38.866;2022-07-29T10:20:55;7.6;;;1.0;;
28455;SDS011;15682;56.742;38.866;2022-07-29T10:22:56;2.4;;;1.0;;
28455;SDS011;15682;56.742;38.866;2022-07-29T10:24:56;3.4;;;0.8;;
28455;SDS011;15682;56.742;38.866;2022-07-29T10:26:57;4.1;;;1.0;;
28455;SDS011;15682;56.742;38.866;2022-07-29T10:28:57;3.3;;;0.9;;
28455;SDS011;15682;56.742;38.866;2022-07-29T10:31:00;7.8;;;1.5;;
28455;SDS011;15682;56.742;38.866;2022-07-29T10:33:06;6.1;;;1.0;;
28455;SDS011;15682;56.742;38.866;2022-07-29T10:35:08;3.4;;;0.8;;
28455;SDS011;15682;56.742;38.866;2022-07-29T10:37:01;3.8;;;0.9;;
28455;SDS011;15682;56.742;38.866;2022-07-29T10:39:00;4.6;;;1.0;;
28455;SDS011;15682;56.742;38.866;2022-07-29T10:41:02;8.1;;;0.9;;
28455;SDS011;15682;56.742;38.866;2022-07-29T10:43:02;5.2;;;1.2;;
28455;SDS011;15682;56.742;38.866;2022-07-29T10:45:02;3.1;;;0.9;;
28455;SDS011;15682;56.742;38.866;2022-07-29T10:47:01;3.9;;;0.8;;
28455;SDS011;15682;56.742;38.866;2022-07-29T10:49:10;5.1;;;1.0;;
28455;SDS011;15682;56.742;38.866;2022-07-29T10:51:03;2.3;;;0.8;;
28455;SDS011;15682;56.742;38.866;2022-07-29T10:53:03;2.5;;;0.8;;
28455;SDS011;15682;56.742;38.866;2022-07-29T10:55:04;3.9;;;0.9;;
28455;SDS011;15682;56.742;38.866;2022-07-29T10:57:12;4.8;;;1.1;;
28455;SDS011;15682;56.742;38.866;2022-07-29T11:01:27;4.5;;;0.8;;
28455;SDS011;15682;56.742;38.866;2022-07-29T11:03:05;3.9;;;0.8;;
28455;SDS011;15682;56.742;38.866;2022-07-29T11:05:06;3.9;;;0.8;;
28455;SDS011;15682;56.742;38.866;2022-07-29T11:07:07;5.5;;;0.8;;
28455;SDS011;15682;56.742;38.866;2022-07-29T11:09:15;4.9;;;1.0;;
28455;SDS011;15682;56.742;38.866;2022-07-29T11:13:08;3.7;;;0.9;;
28455;SDS011;15682;56.742;38.866;2022-07-29T11:15:09;5.8;;;0.9;;
28455;SDS011;15682;56.742;38.866;2022-07-29T11:17:09;5.3;;;1.0;;
28455;SDS011;15682;56.742;38.866;2022-07-29T11:21:28;5.3;;;1.2;;
28455;SDS011;15682;56.742;38.866;2022-07-29T11:23:19;3.2;;;1.0;;
28455;SDS011;15682;56.742;38.866;2022-07-29T11:25:12;4.1;;;1.0;;
28455;SDS011;15682;56.742;38.866;2022-07-29T11:27:14;6.3;;;1.0;;
28455;SDS011;15682;56.742;38.866;2022-07-29T11:29:17;4.1;;;1.0;;
28455;SDS011;15682;56.742;38.866;2022-07-29T11:31:13;6.4;;;1.0;;
28455;SDS011;15682;56.742;38.866;2022-07-29T11:33:26;5.3;;;1.0;;
28455;SDS011;15682;56.742;38.866;2022-07-29T11:35:15;3.6;;;0.8;;
28455;SDS011;15682;56.742;38.866;2022-07-29T11:37:18;3.1;;;0.8;;
28455;SDS011;15682;56.742;38.866;2022-07-29T11:41:23;2.7;;;0.9;;
28455;SDS011;15682;56.742;38.866;2022-07-29T11:43:28;2.7;;;0.8;;
28455;SDS011;15682;56.742;38.866;2022-07-29T11:45:17;3.1;;;0.8;;
28455;SDS011;15682;56.742;38.866;2022-07-29T11:47:19;7.4;;;1.0;;
28455;SDS011;15682;56.742;38.866;2022-07-29T11:49:18;2.3;;;0.7;;
28455;SDS011;15682;56.742;38.866;2022-07-29T11:51:18;3.3;;;0.8;;
28455;SDS011;15682;56.742;38.866;2022-07-29T11:53:18;4.0;;;0.9;;
28455;SDS011;15682;56.742;38.866;2022-07-29T11:55:20;2.5;;;0.6;;
28455;SDS011;15682;56.742;38.866;2022-07-29T11:57:20;9.6;;;1.2;;
28455;SDS011;15682;56.742;38.866;2022-07-29T11:59:20;2.0;;;0.7;;
28455;SDS011;15682;56.742;38.866;2022-07-29T12:01:21;2.5;;;0.8;;
28455;SDS011;15682;56.742;38.866;2022-07-29T12:03:23;4.0;;;1.0;;
28455;SDS011;15682;56.742;38.866;2022-07-29T12:05:29;4.2;;;0.7;;
28455;SDS011;15682;56.742;38.866;2022-07-29T12:07:26;3.8;;;1.0;;
28455;SDS011;15682;56.742;38.866;2022-07-29T12:09:23;4.7;;;0.9;;
28455;SDS011;15682;56.742;38.866;2022-07-29T12:11:23;3.7;;;0.8;;
28455;SDS011;15682;56.742;38.866;2022-07-29T12:13:24;2.9;;;0.9;;
28455;SDS011;15682;56.742;38.866;2022-07-29T12:15:24;1.9;;;0.8;;
28455;SDS011;15682;56.742;38.866;2022-07-29T12:17:25;4.0;;;1.2;;
28455;SDS011;15682;56.742;38.866;2022-07-29T12:19:25;3.2;;;0.9;;
28455;SDS011;15682;56.742;38.866;2022-07-29T12:21:26;6.9;;;1.1;;
28455;SDS011;15682;56.742;38.866;2022-07-29T12:23:26;5.0;;;0.9;;
28455;SDS011;15682;56.742;38.866;2022-07-29T12:25:27;3.6;;;0.8;;
28455;SDS011;15682;56.742;38.866;2022-07-29T12:27:27;2.9;;;0.9;;
28455;SDS011;15682;56.742;38.866;2022-07-29T12:29:28;2.1;;;1.2;;